Time;durP1;ratioP1;P1;durP2;ratioP2;P2;SDS_P1;SDS_P2;PMS_P1;PMS_P2;Temp;Humidity;BMP_temperature;BMP_pressure;BME280_temperature;BME280_humidity;BME280_pressure;Samples;Min_cycle;Max_cycle;Signal;HPM_P1;HPM_P2
2022/07/01 04:44:56;;;;;;;0.10;0.10;;;;;;;;;;4826697;29;20046;-96
2022/07/01 04:47:34;;;;;;;0.10;0.10;;;;;;;;;;4796524;29;20126;-96
2022/07/01 04:50:01;;;;;;;0.10;0.10;;;;;;;;;;4825830;29;20052;-93
2022/07/01 04:52:27;;;;;;;0.10;0.10;;;;;;;;;;4794604;29;20103;-92
2022/07/01 04:54:53;;;;;;;0.10;0.10;;;;;;;;;;4794673;29;20058;-91
2022/07/01 04:57:19;;;;;;;0.73;0.10;;;;;;;;;;4808984;29;20042;-92
2022/07/01 04:59:45;;;;;;;0.10;0.10;;;;;;;;;;4794143;29;20054;-90
2022/07/01 05:02:12;;;;;;;0.10;0.10;;;;;;;;;;4794115;29;20042;-90
2022/07/01 05:04:40;;;;;;;0.10;0.10;;;;;;;;;;4808989;29;20483;-90
2022/07/01 05:07:06;;;;;;;0.10;0.10;;;;;;;;;;4808923;29;20094;-91
2022/07/01 05:09:32;;;;;;;0.25;0.25;;;;;;;;;;4808981;29;20074;-90
2022/07/01 05:11:58;;;;;;;0.20;0.20;;;;;;;;;;4793644;29;20142;-90
2022/07/01 05:14:24;;;;;;;0.10;0.10;;;;;;;;;;4808931;29;20053;-90
2022/07/01 05:16:50;;;;;;;0.10;0.10;;;;;;;;;;4793894;29;20542;-90
2022/07/01 05:22:00;;;;;;;0.10;0.10;;;;;;;;;;4810881;29;20085;-91
2022/07/01 05:24:30;;;;;;;0.20;0.20;;;;;;;;;;4823567;29;20081;-90
2022/07/01 05:26:57;;;;;;;0.10;0.10;;;;;;;;;;4808429;29;20099;-90
2022/07/01 05:29:23;;;;;;;0.30;0.30;;;;;;;;;;4808468;29;20053;-90
2022/07/01 05:31:49;;;;;;;0.10;0.10;;;;;;;;;;4794557;29;20046;-91
2022/07/01 05:34:15;;;;;;;0.22;0.22;;;;;;;;;;4793550;29;20046;-91
2022/07/01 05:36:41;;;;;;;0.10;0.10;;;;;;;;;;4793712;29;20111;-89
2022/07/01 05:39:07;;;;;;;0.10;0.10;;;;;;;;;;4793500;29;20081;-92
2022/07/01 05:41:34;;;;;;;0.10;0.10;;;;;;;;;;4793292;29;20064;-91
2022/07/01 05:44:00;;;;;;;0.10;0.10;;;;;;;;;;4808587;29;20066;-91
2022/07/01 05:46:26;;;;;;;0.10;0.10;;;;;;;;;;4793398;29;20142;-92
2022/07/01 05:48:52;;;;;;;0.17;0.17;;;;;;;;;;4793480;29;20086;-91
2022/07/01 05:51:18;;;;;;;0.10;0.10;;;;;;;;;;4793773;29;20053;-91
2022/07/01 05:53:47;;;;;;;0.20;0.20;;;;;;;;;;4795295;29;20118;-90
2022/07/01 05:56:13;;;;;;;0.10;0.10;;;;;;;;;;4795139;29;20411;-90
2022/07/01 05:58:39;;;;;;;0.10;0.10;;;;;;;;;;4794981;29;20049;-90
2022/07/01 06:01:05;;;;;;;0.10;0.10;;;;;;;;;;4807650;29;20038;-90
2022/07/01 06:03:31;;;;;;;0.10;0.10;;;;;;;;;;4793270;29;20112;-91
2022/07/01 06:05:57;;;;;;;0.22;0.22;;;;;;;;;;4793060;29;20046;-89
2022/07/01 06:08:23;;;;;;;0.25;0.25;;;;;;;;;;4807813;29;20042;-90
2022/07/01 06:10:49;;;;;;;0.35;0.30;;;;;;;;;;4793499;29;20054;-91
2022/07/01 06:13:16;;;;;;;0.40;0.10;;;;;;;;;;4808085;29;20295;-90
2022/07/01 06:15:42;;;;;;;0.10;0.10;;;;;;;;;;4793075;29;20108;-90
2022/07/01 06:18:08;;;;;;;0.10;0.10;;;;;;;;;;4793038;29;20129;-91
2022/07/01 06:20:34;;;;;;;0.10;0.10;;;;;;;;;;4792927;29;20049;-89
2022/07/01 06:23:00;;;;;;;0.10;0.10;;;;;;;;;;4807754;29;20043;-91
2022/07/01 06:25:26;;;;;;;0.20;0.20;;;;;;;;;;4792712;29;20555;-90
2022/07/01 06:27:52;;;;;;;0.32;0.32;;;;;;;;;;4792939;29;20053;-88
2022/07/01 06:30:18;;;;;;;0.15;0.15;;;;;;;;;;4792729;29;20054;-89
2022/07/01 06:32:44;;;;;;;0.10;0.10;;;;;;;;;;4809609;29;20102;-93
2022/07/01 06:35:11;;;;;;;0.20;0.20;;;;;;;;;;4791207;29;20053;-92
2022/07/01 06:37:37;;;;;;;0.10;0.10;;;;;;;;;;4793362;29;20053;-92
2022/07/01 06:40:04;;;;;;;0.10;0.10;;;;;;;;;;4793640;29;20482;-93
2022/07/01 06:42:35;;;;;;;0.10;0.10;;;;;;;;;;4793257;29;20050;-95
2022/07/01 06:45:01;;;;;;;0.10;0.10;;;;;;;;;;4808196;29;20055;-95
2022/07/01 06:47:37;;;;;;;0.10;0.10;;;;;;;;;;4793428;29;20119;-96
2022/07/01 06:50:03;;;;;;;0.20;0.20;;;;;;;;;;4807553;29;20042;-91
2022/07/01 06:52:30;;;;;;;0.10;0.10;;;;;;;;;;4794406;29;20053;-93
2022/07/01 06:54:56;;;;;;;0.10;0.10;;;;;;;;;;4795562;29;20142;-94
2022/07/01 06:57:22;;;;;;;0.38;0.38;;;;;;;;;;4793549;29;20507;-93
2022/07/01 06:59:53;;;;;;;0.43;0.40;;;;;;;;;;4897170;24;20039;-95
2022/07/01 07:02:20;;;;;;;0.50;0.50;;;;;;;;;;4808348;29;20054;-93
2022/07/01 07:05:00;;;;;;;0.10;0.10;;;;;;;;;;4811110;29;20066;-96
2022/07/01 07:07:30;;;;;;;0.10;0.10;;;;;;;;;;4833662;29;20042;-95
2022/07/01 07:17:05;;;;;;;0.15;0.15;;;;;;;;;;5378446;24;20030;-96
2022/07/01 07:33:58;;;;;;;0.10;0.10;;;;;;;;;;5038646;24;20100;-96
2022/07/01 07:36:24;;;;;;;0.22;0.22;;;;;;;;;;4881652;24;20506;-91
2022/07/01 07:38:50;;;;;;;0.10;0.10;;;;;;;;;;4824752;29;20057;-93
2022/07/01 07:41:31;;;;;;;0.10;0.10;;;;;;;;;;4809243;29;20039;-96
2022/07/01 07:44:06;;;;;;;0.30;0.30;;;;;;;;;;4809649;29;20039;-96
2022/07/01 07:46:32;;;;;;;0.20;0.20;;;;;;;;;;4812070;29;20122;-92
2022/07/01 07:49:05;;;;;;;0.20;0.20;;;;;;;;;;4808604;29;20137;-96
2022/07/01 07:51:31;;;;;;;0.20;0.20;;;;;;;;;;4823462;29;20058;-96
2022/07/01 07:54:02;;;;;;;0.10;0.10;;;;;;;;;;4804216;29;20079;-96
2022/07/01 07:56:31;;;;;;;0.30;0.30;;;;;;;;;;4792550;29;20053;-96
2022/07/01 08:06:41;;;;;;;0.10;0.10;;;;;;;;;;4840416;29;20057;-94
2022/07/01 08:09:07;;;;;;;0.20;0.20;;;;;;;;;;4827223;29;20061;-95
2022/07/01 08:11:39;;;;;;;0.30;0.20;;;;;;;;;;4828616;29;20045;-96
2022/07/01 08:14:05;;;;;;;0.30;0.30;;;;;;;;;;4812086;29;20053;-92
2022/07/01 08:16:31;;;;;;;0.22;0.22;;;;;;;;;;4810073;29;20479;-95
2022/07/01 08:18:57;;;;;;;0.20;0.20;;;;;;;;;;4810762;29;20451;-95
2022/07/01 08:21:24;;;;;;;0.38;0.38;;;;;;;;;;4810640;29;20383;-94
2022/07/01 08:23:50;;;;;;;0.10;0.10;;;;;;;;;;4828553;29;20187;-94
2022/07/01 08:26:17;;;;;;;0.10;0.10;;;;;;;;;;4814170;29;20092;-94
2022/07/01 08:28:43;;;;;;;0.30;0.30;;;;;;;;;;4814047;29;20049;-94
2022/07/01 08:31:09;;;;;;;0.10;0.10;;;;;;;;;;4830071;29;20049;-94
2022/07/01 08:33:37;;;;;;;0.20;0.20;;;;;;;;;;4819380;29;20085;-95
2022/07/01 08:36:14;;;;;;;0.10;0.10;;;;;;;;;;4811528;29;20047;-96
2022/07/01 08:38:42;;;;;;;0.17;0.17;;;;;;;;;;4810669;29;20110;-95
2022/07/01 08:41:08;;;;;;;0.20;0.20;;;;;;;;;;4810328;29;20129;-96
2022/07/01 08:43:34;;;;;;;0.10;0.10;;;;;;;;;;4810922;29;20043;-94
2022/07/01 08:46:01;;;;;;;0.17;0.17;;;;;;;;;;4811000;29;20395;-94
2022/07/01 08:48:30;;;;;;;0.50;0.50;;;;;;;;;;4811560;29;20053;-96
2022/07/01 08:50:57;;;;;;;0.52;0.30;;;;;;;;;;4813177;29;20057;-95
2022/07/01 08:53:24;;;;;;;0.10;0.10;;;;;;;;;;4811570;29;20130;-91
2022/07/01 08:58:37;;;;;;;0.22;0.22;;;;;;;;;;4811877;29;20479;-92
2022/07/01 09:01:13;;;;;;;0.20;0.20;;;;;;;;;;4809377;29;20047;-92
2022/07/01 09:03:39;;;;;;;0.13;0.13;;;;;;;;;;4809625;29;20483;-92
2022/07/01 09:06:06;;;;;;;0.10;0.10;;;;;;;;;;4808665;29;20090;-92
2022/07/01 09:08:33;;;;;;;0.10;0.10;;;;;;;;;;4809192;29;20499;-93
2022/07/01 09:11:10;;;;;;;0.20;0.20;;;;;;;;;;4809515;29;20060;-93
2022/07/01 09:13:37;;;;;;;0.10;0.10;;;;;;;;;;4809410;29;20046;-93
2022/07/01 09:16:03;;;;;;;0.30;0.30;;;;;;;;;;4809488;29;20062;-93
2022/07/01 09:18:29;;;;;;;0.20;0.20;;;;;;;;;;4809397;29;20099;-93
2022/07/01 09:20:55;;;;;;;0.10;0.10;;;;;;;;;;4808831;29;20085;-93
2022/07/01 09:23:21;;;;;;;0.10;0.10;;;;;;;;;;4809633;29;20141;-93
2022/07/01 09:25:48;;;;;;;0.10;0.10;;;;;;;;;;4808615;29;20038;-90
2022/07/01 09:28:20;;;;;;;0.10;0.10;;;;;;;;;;4815007;29;20463;-93
2022/07/01 09:31:09;;;;;;;0.20;0.20;;;;;;;;;;4811861;29;20046;-93
2022/07/01 09:34:13;;;;;;;0.10;0.10;;;;;;;;;;4835359;29;20042;-96
2022/07/01 09:37:28;;;;;;;0.20;0.20;;;;;;;;;;4816388;29;20054;-96
2022/07/01 09:40:14;;;;;;;0.20;0.20;;;;;;;;;;4748626;29;20054;-96
2022/07/01 09:43:31;;;;;;;0.10;0.10;;;;;;;;;;4758161;30;20086;-96
2022/07/01 09:46:00;;;;;;;0.10;0.10;;;;;;;;;;4790814;29;20082;-96
2022/07/01 09:48:27;;;;;;;0.20;0.20;;;;;;;;;;4830010;29;20048;-92
2022/07/01 09:50:53;;;;;;;0.10;0.10;;;;;;;;;;4811490;29;20505;-92
2022/07/01 09:56:22;;;;;;;;;;;;;;;;;;5080365;24;20128;-95
2022/07/01 10:24:40;;;;;;;0.35;0.35;;;;;;;;;;5664794;24;20554;-96
2022/07/01 16:52:28;;;;;;;0.20;0.20;;;;;;;;;;5584916;24;20028;-95
2022/07/01 16:57:48;;;;;;;0.10;0.10;;;;;;;;;;5863612;23;20062;-93
2022/07/01 17:00:24;;;;;;;0.20;0.20;;;;;;;;;;4957662;24;20148;-93
2022/07/01 17:22:09;;;;;;;0.10;0.10;;;;;;;;;;5036203;23;20050;-95
2022/07/01 17:24:36;;;;;;;0.10;0.10;;;;;;;;;;4815813;29;20050;-92
2022/07/01 17:27:22;;;;;;;0.20;0.20;;;;;;;;;;4812168;29;20101;-95
2022/07/01 17:29:55;;;;;;;0.10;0.10;;;;;;;;;;4812825;29;20045;-95
2022/07/01 17:32:21;;;;;;;0.10;0.10;;;;;;;;;;4809308;29;20046;-95
2022/07/01 17:34:47;;;;;;;0.10;0.10;;;;;;;;;;4794742;29;20078;-94
2022/07/01 17:37:13;;;;;;;0.10;0.10;;;;;;;;;;4794438;29;20050;-95
2022/07/01 17:40:05;;;;;;;0.10;0.10;;;;;;;;;;4796646;29;20120;-96
2022/07/01 17:42:31;;;;;;;0.10;0.10;;;;;;;;;;4797731;29;20042;-94
2022/07/01 17:45:20;;;;;;;0.10;0.10;;;;;;;;;;4794456;29;20042;-95
2022/07/01 17:58:47;;;;;;;0.10;0.10;;;;;;;;;;5112450;23;20119;-96
2022/07/01 18:01:16;;;;;;;0.10;0.10;;;;;;;;;;4815542;29;20399;-95
2022/07/01 18:15:08;;;;;;;0.10;0.10;;;;;;;;;;4830524;29;20056;-96
2022/07/01 18:17:54;;;;;;;0.10;0.10;;;;;;;;;;4831497;29;20090;-96
2022/07/01 18:20:41;;;;;;;0.10;0.10;;;;;;;;;;4831417;29;20042;-96
2022/07/01 20:04:02;;;;;;;;;;;;;;;;;;;;;
2022/07/01 20:06:29;;;;;;;0.10;0.10;;;;;;;;;;4819424;29;20054;-96
2022/07/01 20:08:58;;;;;;;0.10;0.10;;;;;;;;;;4815805;29;20050;-94
2022/07/01 20:11:41;;;;;;;;;;;;;;;;;;;;;
2022/07/01 20:15:01;;;;;;;;;;;;;;;;;;;;;
2022/07/01 20:17:57;;;;;;;;;;;;;;;;;;;;;
2022/07/01 20:28:30;;;;;;;0.10;0.10;;;;;;;;;;5820478;23;20025;-96
2022/07/01 20:44:01;;;;;;;0.10;0.10;;;;;;;;;;5726375;23;21045;-95
2022/07/01 20:49:36;;;;;;;0.10;0.10;;;;;;;;;;5682844;23;20053;-96
2022/07/01 21:34:16;;;;;;;0.10;0.10;;;;;;;;;;4826753;29;20057;-96
2022/07/01 21:43:09;;;;;;;0.20;0.20;;;;;;;;;;4814571;29;20577;-96
2022/07/01 21:45:43;;;;;;;0.10;0.10;;;;;;;;;;4816443;29;20057;-96
2022/07/01 21:48:12;;;;;;;0.10;0.10;;;;;;;;;;4837536;29;20045;-96
2022/07/01 21:50:56;;;;;;;0.10;0.10;;;;;;;;;;4825638;29;20057;-96
2022/07/01 21:53:23;;;;;;;0.10;0.10;;;;;;;;;;4818300;29;20052;-94
2022/07/01 21:55:49;;;;;;;0.10;0.10;;;;;;;;;;4815305;29;20177;-96
2022/07/01 21:58:15;;;;;;;0.10;0.10;;;;;;;;;;4815720;29;20041;-96
2022/07/01 22:00:47;;;;;;;0.10;0.10;;;;;;;;;;4815420;29;20096;-96
2022/07/01 22:03:14;;;;;;;0.10;0.10;;;;;;;;;;4818513;29;20121;-96
2022/07/01 22:08:24;;;;;;;0.10;0.10;;;;;;;;;;4832391;29;20152;-96
2022/07/01 22:10:50;;;;;;;0.10;0.10;;;;;;;;;;4814545;29;20048;-93
2022/07/01 22:13:16;;;;;;;0.10;0.10;;;;;;;;;;4814434;29;20410;-95
2022/07/01 22:15:42;;;;;;;0.10;0.10;;;;;;;;;;4814418;29;20047;-94
2022/07/01 22:18:08;;;;;;;0.10;0.10;;;;;;;;;;4814300;29;20045;-95
2022/07/01 22:20:38;;;;;;;0.20;0.20;;;;;;;;;;4814634;29;20080;-95
2022/07/01 22:23:04;;;;;;;0.10;0.10;;;;;;;;;;4814504;29;20066;-94
2022/07/01 22:25:30;;;;;;;0.10;0.10;;;;;;;;;;4814354;29;20041;-96
2022/07/01 22:27:56;;;;;;;0.10;0.10;;;;;;;;;;4814589;29;20045;-95
2022/07/01 22:30:23;;;;;;;0.10;0.10;;;;;;;;;;4814375;29;20050;-96
2022/07/01 22:32:49;;;;;;;0.17;0.17;;;;;;;;;;4814465;29;20402;-96
2022/07/01 22:35:15;;;;;;;0.10;0.10;;;;;;;;;;4814276;29;20072;-96
2022/07/01 22:37:41;;;;;;;0.10;0.10;;;;;;;;;;4814119;29;20490;-95
2022/07/01 22:40:07;;;;;;;0.10;0.10;;;;;;;;;;4813801;29;20061;-95
2022/07/01 22:42:33;;;;;;;0.10;0.10;;;;;;;;;;4814229;29;20109;-95
2022/07/01 22:44:59;;;;;;;0.10;0.10;;;;;;;;;;4814091;29;20045;-94
2022/07/01 22:47:25;;;;;;;0.10;0.10;;;;;;;;;;4814782;29;20049;-95
2022/07/01 22:49:51;;;;;;;0.10;0.10;;;;;;;;;;4813805;29;20057;-94
2022/07/01 22:52:36;;;;;;;0.10;0.10;;;;;;;;;;4829281;29;20125;-95
2022/07/01 22:55:08;;;;;;;0.10;0.10;;;;;;;;;;4829513;29;20053;-95
2022/07/01 22:57:43;;;;;;;0.10;0.10;;;;;;;;;;4829336;29;20101;-96
2022/07/01 23:00:09;;;;;;;0.10;0.10;;;;;;;;;;4829301;29;20052;-95
2022/07/01 23:02:37;;;;;;;0.10;0.10;;;;;;;;;;4813707;29;20052;-94
2022/07/01 23:05:03;;;;;;;0.10;0.10;;;;;;;;;;4813547;29;20128;-95
2022/07/01 23:07:30;;;;;;;0.10;0.10;;;;;;;;;;4814069;29;20089;-95
2022/07/01 23:10:06;;;;;;;0.10;0.10;;;;;;;;;;4813973;29;20041;-96
2022/07/01 23:12:32;;;;;;;0.10;0.10;;;;;;;;;;4814030;29;20057;-96
2022/07/01 23:17:53;;;;;;;0.10;0.10;;;;;;;;;;4833010;29;20049;-96
2022/07/01 23:33:39;;;;;;;0.10;0.10;;;;;;;;;;4804270;29;20051;-95
2022/07/01 23:36:05;;;;;;;0.10;0.10;;;;;;;;;;4774666;29;20399;-95
2022/07/01 23:38:31;;;;;;;0.15;0.15;;;;;;;;;;4774716;29;20100;-96
2022/07/01 23:41:14;;;;;;;0.10;0.10;;;;;;;;;;4774457;29;20054;-96
2022/07/01 23:43:45;;;;;;;0.15;0.15;;;;;;;;;;4777425;29;20115;-96
2022/07/01 23:46:11;;;;;;;0.10;0.10;;;;;;;;;;4774555;29;20488;-94
2022/07/01 23:48:38;;;;;;;0.10;0.10;;;;;;;;;;4774628;29;20492;-94
2022/07/01 23:51:04;;;;;;;0.10;0.10;;;;;;;;;;4774497;29;20133;-94
2022/07/01 23:53:30;;;;;;;0.10;0.10;;;;;;;;;;4775588;29;20051;-96
2022/07/01 23:55:56;;;;;;;0.10;0.10;;;;;;;;;;4777912;29;20053;-96
2022/07/01 23:58:23;;;;;;;0.10;0.10;;;;;;;;;;4792736;29;20054;-95
